createdAt,value
2022-12-12T04:47:47.084Z,-8.40
2022-12-12T04:50:14.647Z,-8.40
2022-12-12T04:52:43.388Z,-8.40
2022-12-12T04:55:32.742Z,-8.50
2022-12-12T04:57:59.457Z,-8.40
2022-12-12T05:00:32.033Z,-8.40
2022-12-12T05:03:08.281Z,-8.40
2022-12-12T05:05:44.222Z,-8.30
2022-12-12T05:08:20.889Z,-8.30
2022-12-12T05:10:52.099Z,-8.20
2022-12-12T05:13:21.400Z,-8.10
2022-12-12T05:15:53.013Z,-8.00
2022-12-12T05:18:20.386Z,-7.90
2022-12-12T05:20:47.064Z,-7.80
2022-12-12T05:23:14.458Z,-7.80
2022-12-12T05:25:41.142Z,-7.60
2022-12-12T05:28:07.938Z,-7.60
2022-12-12T05:30:34.861Z,-7.60
2022-12-12T05:33:01.777Z,-7.50
2022-12-12T05:35:28.442Z,-7.50
2022-12-12T05:37:55.193Z,-7.40
2022-12-12T05:40:22.639Z,-7.30
2022-12-12T05:42:49.295Z,-7.30
2022-12-12T05:45:16.128Z,-7.20
2022-12-12T05:47:42.887Z,-7.10
2022-12-12T05:50:09.936Z,-7.00
2022-12-12T05:52:36.768Z,-7.00
2022-12-12T05:55:03.859Z,-7.00
2022-12-12T05:57:30.610Z,-7.00
2022-12-12T05:59:57.243Z,-7.00
2022-12-12T06:02:24.018Z,-6.90
2022-12-12T06:04:50.644Z,-7.00
2022-12-12T06:07:17.304Z,-6.90
2022-12-12T06:09:44.003Z,-6.80
2022-12-12T06:12:10.706Z,-6.70
2022-12-12T06:14:37.535Z,-6.60
2022-12-12T06:17:04.243Z,-6.60
2022-12-12T06:19:30.977Z,-6.50
2022-12-12T06:21:57.727Z,-6.40
2022-12-12T06:24:24.380Z,-6.30
2022-12-12T06:26:51.238Z,-6.20
2022-12-12T06:29:17.936Z,-6.10
2022-12-12T06:31:44.626Z,-6.00
2022-12-12T06:34:11.263Z,-5.90
2022-12-12T06:36:38.803Z,-5.80
2022-12-12T06:39:05.559Z,-5.70
2022-12-12T06:41:33.771Z,-5.70
2022-12-12T06:44:00.443Z,-5.60
2022-12-12T06:46:28.942Z,-5.60
2022-12-12T06:48:56.880Z,-5.50
2022-12-12T06:51:26.475Z,-5.50
2022-12-12T06:53:53.531Z,-5.60
2022-12-12T06:56:22.966Z,-5.70
2022-12-12T06:58:50.042Z,-5.60
2022-12-12T07:01:19.422Z,-5.50
2022-12-12T07:03:46.897Z,-5.50
2022-12-12T07:06:13.829Z,-5.40
2022-12-12T07:08:40.541Z,-5.30
2022-12-12T07:11:15.927Z,-5.30
2022-12-12T07:13:42.664Z,-5.20
2022-12-12T07:16:10.342Z,-5.20
2022-12-12T07:18:37.209Z,-5.20
2022-12-12T07:21:09.015Z,-5.20
2022-12-12T07:23:36.052Z,-5.10
2022-12-12T07:26:11.327Z,-5.10
2022-12-12T07:28:40.714Z,-5.00
2022-12-12T07:31:10.198Z,-4.90
2022-12-12T07:33:43.746Z,-4.90
2022-12-12T07:36:15.898Z,-4.80
2022-12-12T07:38:43.535Z,-4.80
2022-12-12T07:41:13.570Z,-4.80
2022-12-12T07:43:44.226Z,-4.80
2022-12-12T07:46:15.010Z,-4.70
2022-12-12T07:48:41.819Z,-4.60
2022-12-12T07:51:08.492Z,-4.60
2022-12-12T07:53:35.233Z,-4.70
2022-12-12T07:56:06.439Z,-4.60
2022-12-12T07:58:33.781Z,-4.50
2022-12-12T08:01:00.709Z,-4.30
2022-12-12T08:03:27.399Z,-4.20
2022-12-12T08:05:54.373Z,-4.10
2022-12-12T08:08:21.387Z,-4.00
2022-12-12T08:10:48.117Z,-4.10
2022-12-12T08:13:14.802Z,-4.00
2022-12-12T08:15:43.236Z,-4.00
2022-12-12T08:18:09.946Z,-3.90
2022-12-12T08:20:39.820Z,-4.00
2022-12-12T08:23:06.961Z,-3.90
2022-12-12T08:25:35.309Z,-3.80
2022-12-12T08:28:02.274Z,-3.80
2022-12-12T08:30:28.867Z,-3.60
2022-12-12T08:32:55.536Z,-3.50
2022-12-12T08:35:22.260Z,-3.40
2022-12-12T08:37:48.988Z,-3.30
2022-12-12T08:40:15.781Z,-3.40
2022-12-12T08:42:42.398Z,-3.30
2022-12-12T08:45:09.353Z,-3.20
2022-12-12T08:47:36.050Z,-3.20
2022-12-12T08:50:02.733Z,-3.10
2022-12-12T08:52:29.369Z,-3.00
2022-12-12T08:54:56.034Z,-2.90
2022-12-12T08:57:25.897Z,-2.80
2022-12-12T08:59:52.849Z,-2.70
2022-12-12T09:02:19.583Z,-2.60
2022-12-12T09:04:46.483Z,-2.60
2022-12-12T09:07:13.238Z,-2.50
2022-12-12T09:09:39.935Z,-2.40
2022-12-12T09:12:06.992Z,-2.30
2022-12-12T09:14:33.878Z,-2.20
2022-12-12T09:17:00.540Z,-2.10
2022-12-12T09:19:27.554Z,-2.10
2022-12-12T09:21:54.197Z,-1.90
2022-12-12T09:24:20.916Z,-1.80
2022-12-12T09:26:47.635Z,-1.70
2022-12-12T09:29:14.442Z,-1.70
2022-12-12T09:31:41.132Z,-1.60
2022-12-12T09:34:07.881Z,-1.60
2022-12-12T09:36:34.565Z,-1.50
2022-12-12T09:39:01.274Z,-1.30
2022-12-12T09:41:30.542Z,-1.20
2022-12-12T09:44:07.401Z,-1.20
2022-12-12T09:46:48.377Z,-1.00
2022-12-12T09:49:22.779Z,-0.90
2022-12-12T09:51:50.778Z,-0.80
2022-12-12T09:54:20.732Z,-0.70
2022-12-12T09:57:10.623Z,-0.60
2022-12-12T09:59:52.612Z,-0.50
2022-12-12T10:02:36.203Z,-0.70
2022-12-12T10:05:24.483Z,-0.70
2022-12-12T10:07:59.019Z,-0.70
2022-12-12T10:10:29.854Z,-0.90
2022-12-12T10:12:59.562Z,-0.80
2022-12-12T10:15:32.332Z,-0.60
2022-12-12T10:18:04.084Z,-0.50
2022-12-12T10:20:33.315Z,-0.60
2022-12-12T10:23:26.577Z,-0.50
2022-12-12T10:25:57.460Z,-0.60
2022-12-12T10:28:26.139Z,-0.70
2022-12-12T10:31:11.597Z,-1.00
2022-12-12T10:33:59.443Z,-0.80
2022-12-12T10:36:41.443Z,-0.80
2022-12-12T10:39:34.166Z,-0.70
2022-12-12T10:42:03.569Z,-0.60
2022-12-12T10:44:40.779Z,-0.40
2022-12-12T10:47:12.857Z,-0.30
2022-12-12T10:49:40.282Z,-0.30
2022-12-12T10:52:22.062Z,-0.20
2022-12-12T10:54:54.601Z,0.00
2022-12-12T10:57:25.146Z,0.00
2022-12-12T10:59:57.367Z,-0.20
2022-12-12T11:02:39.166Z,-0.20
2022-12-12T11:05:08.337Z,-0.30
2022-12-12T11:07:44.980Z,-0.40
2022-12-12T11:10:47.369Z,-0.30
2022-12-12T11:13:16.384Z,-0.10
2022-12-12T11:15:58.831Z,-0.10
2022-12-12T11:18:26.519Z,-0.20
2022-12-12T11:20:57.554Z,-0.30
2022-12-12T11:23:27.338Z,-0.30
2022-12-12T11:25:59.928Z,-0.50
2022-12-12T11:28:31.768Z,-0.50
2022-12-12T11:31:04.619Z,-0.60
2022-12-12T11:33:35.799Z,-0.70
2022-12-12T11:36:06.313Z,-0.70
2022-12-12T11:38:40.994Z,-0.70
2022-12-12T11:41:11.705Z,-0.80
2022-12-12T11:43:53.912Z,-0.90
2022-12-12T11:46:25.594Z,-1.20
2022-12-12T11:48:52.322Z,-1.40
2022-12-12T11:51:33.600Z,-1.40
2022-12-12T11:54:02.324Z,-1.50
2022-12-12T11:56:44.046Z,-1.50
2022-12-12T11:59:48.719Z,-1.50
2022-12-12T12:02:53.030Z,-1.40
2022-12-12T12:05:36.921Z,-1.40
2022-12-12T12:08:09.821Z,-1.40
2022-12-12T12:10:53.961Z,-1.40
2022-12-12T12:13:38.682Z,-1.40
2022-12-12T12:16:23.994Z,-1.50
2022-12-12T12:19:02.786Z,-1.60
2022-12-12T12:21:41.540Z,-1.70
2022-12-12T12:24:34.603Z,-1.80
2022-12-12T12:27:20.944Z,-1.70
2022-12-12T12:30:02.767Z,-1.60
2022-12-12T12:32:50.394Z,-1.60
2022-12-12T12:35:27.107Z,-1.60
2022-12-12T12:38:07.245Z,-1.40
2022-12-12T12:41:00.571Z,-1.20
2022-12-12T12:43:42.801Z,-1.20
2022-12-12T12:46:47.156Z,-1.20
2022-12-12T12:49:29.743Z,-1.00
2022-12-12T12:52:19.834Z,-0.90
2022-12-12T12:54:48.808Z,-0.80
2022-12-12T12:57:34.660Z,-0.70
2022-12-12T13:00:06.590Z,-0.70
2022-12-12T13:02:54.517Z,-0.60
2022-12-12T13:05:31.082Z,-0.40
2022-12-12T13:08:02.757Z,-0.30
2022-12-12T13:10:31.450Z,-0.30
2022-12-12T13:13:06.247Z,-0.20
2022-12-12T13:15:46.773Z,-0.10
2022-12-12T13:18:17.501Z,0.10
2022-12-12T13:20:57.751Z,0.10
2022-12-12T13:23:47.102Z,0.10
2022-12-12T13:26:29.928Z,0.00
2022-12-12T13:29:27.821Z,0.00
2022-12-12T13:32:19.278Z,0.10
2022-12-12T13:34:50.414Z,0.10
2022-12-12T13:37:22.315Z,0.20
2022-12-12T13:40:00.538Z,0.30
2022-12-12T13:43:07.442Z,0.30
2022-12-12T13:45:42.942Z,0.30
2022-12-12T13:48:29.560Z,0.20
2022-12-12T13:51:31.013Z,0.00
2022-12-12T13:54:12.038Z,0.10
2022-12-12T13:56:40.871Z,0.20
2022-12-12T13:59:22.896Z,0.10
2022-12-12T14:01:50.861Z,-0.10
2022-12-12T14:04:32.646Z,-0.10
2022-12-12T14:07:18.381Z,-0.10
2022-12-12T14:09:51.948Z,0.00
2022-12-12T14:12:18.546Z,-0.10
2022-12-12T14:14:56.582Z,-0.20
2022-12-12T14:17:25.458Z,-0.30
2022-12-12T14:19:56.228Z,-0.40
2022-12-12T14:22:27.080Z,-0.40
2022-12-12T14:25:03.748Z,-0.40
2022-12-12T14:27:51.435Z,-0.50
2022-12-12T14:30:33.362Z,-0.70
2022-12-12T14:33:28.941Z,-1.10
2022-12-12T14:36:01.915Z,-1.20
2022-12-12T14:38:52.576Z,-1.40
2022-12-12T14:41:22.790Z,-1.80
2022-12-12T14:44:37.164Z,-2.00
2022-12-12T14:46:44.245Z,-2.20
2022-12-12T14:49:18.508Z,-2.50
2022-12-12T14:51:51.104Z,-2.60
2022-12-12T14:54:20.604Z,-2.70
2022-12-12T14:56:59.001Z,-2.90
2022-12-12T14:59:29.543Z,-3.10
2022-12-12T15:02:06.352Z,-3.40
2022-12-12T15:04:38.057Z,-3.60
2022-12-12T15:07:21.186Z,-3.70
2022-12-12T15:09:49.282Z,-3.80
2022-12-12T15:12:19.827Z,-3.90
2022-12-12T15:14:49.901Z,-4.10
2022-12-12T15:17:40.536Z,-4.10
2022-12-12T15:20:14.433Z,-4.10
2022-12-12T15:22:50.273Z,-4.10
2022-12-12T15:25:20.155Z,-4.10
2022-12-12T15:27:55.662Z,-4.10
2022-12-12T15:30:39.312Z,-4.20
2022-12-12T15:33:17.388Z,-4.30
2022-12-12T15:36:05.283Z,-4.30
2022-12-12T15:38:33.369Z,-4.20
2022-12-12T15:41:06.697Z,-4.20
2022-12-12T15:43:37.234Z,-4.30
2022-12-12T15:46:14.074Z,-4.40
2022-12-12T15:48:49.596Z,-4.40
2022-12-12T15:51:24.314Z,-4.40
2022-12-12T15:53:53.227Z,-4.40
2022-12-12T15:56:19.818Z,-4.60
2022-12-12T15:59:09.520Z,-4.80
2022-12-12T16:01:36.508Z,-4.80
2022-12-12T16:04:26.213Z,-5.00
2022-12-12T16:06:52.815Z,-5.00
2022-12-12T16:09:25.398Z,-5.00
2022-12-12T16:11:55.531Z,-5.10
2022-12-12T16:14:29.058Z,-5.20
2022-12-12T16:17:15.686Z,-5.20
2022-12-12T16:19:57.219Z,-5.20
2022-12-12T16:22:32.791Z,-5.20
2022-12-12T16:25:21.566Z,-5.20
2022-12-12T16:28:00.199Z,-5.20
2022-12-12T16:30:28.230Z,-5.20
2022-12-12T16:32:55.262Z,-5.20
2022-12-12T16:35:23.890Z,-5.20
2022-12-12T16:37:52.570Z,-5.20
2022-12-12T16:40:21.194Z,-5.20
2022-12-12T16:43:09.486Z,-5.30
2022-12-12T16:45:37.994Z,-5.40
2022-12-12T16:48:18.333Z,-5.50
2022-12-12T16:50:45.851Z,-5.70
2022-12-12T16:53:12.641Z,-5.70
2022-12-12T16:55:44.437Z,-5.70
2022-12-12T16:58:11.044Z,-5.70
2022-12-12T17:00:38.216Z,-5.70
2022-12-12T17:03:05.682Z,-5.60
2022-12-12T17:05:33.069Z,-5.60
2022-12-12T17:07:59.772Z,-5.70
2022-12-12T17:10:26.544Z,-5.70
2022-12-12T17:12:54.333Z,-5.70
2022-12-12T17:15:23.661Z,-5.70
2022-12-12T17:17:50.398Z,-5.70
2022-12-12T17:20:17.857Z,-5.80
2022-12-12T17:22:45.222Z,-5.80
2022-12-12T17:25:12.687Z,-5.80
2022-12-12T17:27:39.840Z,-5.70
2022-12-12T17:30:08.668Z,-5.70
2022-12-12T17:32:36.047Z,-5.70
2022-12-12T17:35:03.657Z,-5.70
2022-12-12T17:37:30.506Z,-5.70
2022-12-12T17:39:57.765Z,-5.70
2022-12-12T17:42:25.142Z,-5.80
2022-12-12T17:44:52.360Z,-5.70
2022-12-12T17:47:19.009Z,-5.70
2022-12-12T17:49:48.094Z,-5.80
2022-12-12T17:52:15.071Z,-5.80
2022-12-12T17:54:41.742Z,-5.80
2022-12-12T17:57:09.454Z,-5.80
2022-12-12T17:59:36.124Z,-5.90
2022-12-12T18:02:03.202Z,-5.90
2022-12-12T18:04:35.698Z,-5.90
2022-12-12T18:07:02.471Z,-6.00
2022-12-12T18:09:29.127Z,-6.00
2022-12-12T18:11:55.749Z,-6.00
2022-12-12T18:14:22.373Z,-6.00
2022-12-12T18:16:52.512Z,-6.00
2022-12-12T18:19:21.173Z,-6.10
2022-12-12T18:22:03.270Z,-6.10
2022-12-12T18:24:30.258Z,-6.10
2022-12-12T18:26:59.976Z,-6.20
2022-12-12T18:29:27.249Z,-6.20
2022-12-12T18:31:54.284Z,-6.30
2022-12-12T18:34:21.767Z,-6.30
2022-12-12T18:36:49.702Z,-6.30
2022-12-12T18:39:16.729Z,-6.30
2022-12-12T18:41:43.688Z,-6.30
2022-12-12T18:44:13.547Z,-6.30
2022-12-12T18:46:43.363Z,-6.30
2022-12-12T18:49:13.813Z,-6.40
2022-12-12T18:51:41.132Z,-6.40
2022-12-12T18:54:14.194Z,-6.40
2022-12-12T18:56:42.281Z,-6.50
2022-12-12T18:59:09.057Z,-6.40
2022-12-12T19:01:36.214Z,-6.40
2022-12-12T19:04:11.372Z,-6.50
2022-12-12T19:06:41.152Z,-6.50
2022-12-12T19:09:11.909Z,-6.50
2022-12-12T19:11:38.815Z,-6.40
2022-12-12T19:14:07.020Z,-6.50
2022-12-12T19:16:34.573Z,-6.50
2022-12-12T19:19:01.832Z,-6.50
2022-12-12T19:21:28.788Z,-6.50
2022-12-12T19:23:55.830Z,-6.50
2022-12-12T19:26:28.137Z,-6.50
2022-12-12T19:29:00.021Z,-6.70
2022-12-12T19:31:26.679Z,-6.70
2022-12-12T19:33:53.612Z,-6.70
2022-12-12T19:36:23.145Z,-6.80
2022-12-12T19:38:50.699Z,-6.90
2022-12-12T19:41:19.710Z,-6.90
2022-12-12T19:43:47.827Z,-6.90
2022-12-12T19:46:20.919Z,-6.90
2022-12-12T19:48:48.857Z,-6.90
2022-12-12T19:51:18.423Z,-6.80
2022-12-12T19:53:50.519Z,-6.80
2022-12-12T19:56:20.750Z,-6.90
2022-12-12T19:58:47.842Z,-7.00
2022-12-12T20:01:18.180Z,-6.90
2022-12-12T20:03:56.999Z,-6.90
2022-12-12T20:06:25.038Z,-7.00
2022-12-12T20:08:51.860Z,-7.10
2022-12-12T20:11:21.224Z,-7.10
2022-12-12T20:13:49.328Z,-7.20
2022-12-12T20:16:18.051Z,-7.20
2022-12-12T20:18:47.286Z,-7.20
2022-12-12T20:21:36.198Z,-7.30
2022-12-12T20:24:01.172Z,-7.30
2022-12-12T20:26:29.944Z,-7.40
2022-12-12T20:28:59.503Z,-7.40
2022-12-12T20:31:29.224Z,-7.40
2022-12-12T20:33:57.708Z,-7.40
2022-12-12T20:36:29.788Z,-7.40
2022-12-12T20:38:58.375Z,-7.40
2022-12-12T20:41:29.848Z,-7.50
2022-12-12T20:43:58.614Z,-7.50
2022-12-12T20:46:31.265Z,-7.50
2022-12-12T20:49:00.849Z,-7.50
2022-12-12T20:51:54.739Z,-7.50
2022-12-12T20:54:19.862Z,-7.50
2022-12-12T20:56:46.774Z,-7.50
2022-12-12T20:59:14.401Z,-7.50
2022-12-12T21:01:41.586Z,-7.50
2022-12-12T21:04:09.332Z,-7.50
2022-12-12T21:06:38.910Z,-7.50
2022-12-12T21:09:09.129Z,-7.50
2022-12-12T21:11:36.849Z,-7.50
2022-12-12T21:14:03.933Z,-7.50
2022-12-12T21:16:33.584Z,-7.50
2022-12-12T21:19:11.989Z,-7.50
2022-12-12T21:21:40.305Z,-7.50
2022-12-12T21:24:07.046Z,-7.40
2022-12-12T21:26:33.910Z,-7.30
2022-12-12T21:29:01.876Z,-7.20
2022-12-12T21:31:36.380Z,-7.20
2022-12-12T21:34:04.488Z,-7.10
2022-12-12T21:36:31.674Z,-7.00
2022-12-12T21:38:59.813Z,-7.10
2022-12-12T21:41:26.991Z,-7.20
2022-12-12T21:43:55.509Z,-7.20
2022-12-12T21:46:25.344Z,-7.20
2022-12-12T21:49:11.449Z,-7.30
2022-12-12T21:51:39.775Z,-7.40
2022-12-12T21:54:08.120Z,-7.40
2022-12-12T21:56:34.840Z,-7.40
2022-12-12T21:59:03.227Z,-7.40
2022-12-12T22:01:32.382Z,-7.40
2022-12-12T22:04:00.186Z,-7.40
2022-12-12T22:06:29.572Z,-7.30
2022-12-12T22:08:57.366Z,-7.20
2022-12-12T22:11:40.781Z,-7.10
2022-12-12T22:14:12.772Z,-7.20
2022-12-12T22:16:39.605Z,-7.30
2022-12-12T22:19:10.860Z,-7.40
2022-12-12T22:21:37.756Z,-7.40
2022-12-12T22:24:05.156Z,-7.50
2022-12-12T22:26:38.268Z,-7.50
2022-12-12T22:29:16.874Z,-7.40
2022-12-12T22:31:44.807Z,-7.40
2022-12-12T22:34:15.577Z,-7.50
2022-12-12T22:36:43.041Z,-7.40
2022-12-12T22:39:17.699Z,-7.50
2022-12-12T22:41:44.636Z,-7.50
2022-12-12T22:44:15.679Z,-7.50
2022-12-12T22:46:46.060Z,-7.50
2022-12-12T22:49:19.246Z,-7.60
2022-12-12T22:51:47.077Z,-7.60
2022-12-12T22:54:14.183Z,-7.70
2022-12-12T22:56:41.772Z,-7.50
2022-12-12T22:59:10.233Z,-7.50
2022-12-12T23:01:37.024Z,-7.40
2022-12-12T23:04:03.962Z,-7.50
2022-12-12T23:06:34.255Z,-7.60
2022-12-12T23:09:07.684Z,-7.80
2022-12-12T23:11:35.025Z,-7.80
2022-12-12T23:14:07.913Z,-7.80
2022-12-12T23:16:35.564Z,-7.90
2022-12-12T23:19:05.610Z,-7.90
2022-12-12T23:21:32.919Z,-7.80
2022-12-12T23:23:59.642Z,-7.80
2022-12-12T23:26:30.062Z,-7.70
2022-12-12T23:28:58.364Z,-7.70
2022-12-12T23:31:28.654Z,-7.70
2022-12-12T23:34:07.356Z,-7.60
2022-12-12T23:36:34.105Z,-7.50
2022-12-12T23:39:07.531Z,-7.40
2022-12-12T23:41:34.878Z,-7.30
2022-12-12T23:44:01.560Z,-7.30
2022-12-12T23:46:28.659Z,-7.20
2022-12-12T23:49:13.452Z,-7.00
2022-12-12T23:51:48.847Z,-6.80
2022-12-12T23:54:22.260Z,-6.70
2022-12-12T23:56:49.537Z,-6.70
2022-12-12T23:59:18.800Z,-6.60
